sensor_id;sensor_type;location;lat;lon;timestamp;P1;durP1;ratioP1;P2;durP2;ratioP2
12852;SDS011;6495;51.808;7.478;2023-01-25T00:00:38;12.17;;;7.67;;
12852;SDS011;6495;51.808;7.478;2023-01-25T00:03:26;17.10;;;8.63;;
12852;SDS011;6495;51.808;7.478;2023-01-25T00:06:14;15.10;;;7.93;;
12852;SDS011;6495;51.808;7.478;2023-01-25T00:09:01;16.53;;;8.30;;
12852;SDS011;6495;51.808;7.478;2023-01-25T00:11:48;15.30;;;8.23;;
12852;SDS011;6495;51.808;7.478;2023-01-25T00:14:36;15.43;;;9.30;;
12852;SDS011;6495;51.808;7.478;2023-01-25T00:17:23;17.57;;;9.70;;
12852;SDS011;6495;51.808;7.478;2023-01-25T00:20:12;14.57;;;8.67;;
12852;SDS011;6495;51.808;7.478;2023-01-25T00:22:59;14.67;;;7.87;;
12852;SDS011;6495;51.808;7.478;2023-01-25T00:25:46;13.03;;;7.57;;
12852;SDS011;6495;51.808;7.478;2023-01-25T00:28:33;15.67;;;9.47;;
12852;SDS011;6495;51.808;7.478;2023-01-25T00:31:21;16.60;;;7.70;;
12852;SDS011;6495;51.808;7.478;2023-01-25T00:37:39;15.90;;;7.63;;
12852;SDS011;6495;51.808;7.478;2023-01-25T00:40:31;15.87;;;8.57;;
12852;SDS011;6495;51.808;7.478;2023-01-25T00:43:18;13.10;;;7.73;;
12852;SDS011;6495;51.808;7.478;2023-01-25T00:46:04;18.20;;;8.37;;
12852;SDS011;6495;51.808;7.478;2023-01-25T00:48:51;17.13;;;8.30;;
12852;SDS011;6495;51.808;7.478;2023-01-25T00:51:39;17.30;;;8.63;;
12852;SDS011;6495;51.808;7.478;2023-01-25T00:54:27;13.27;;;7.63;;
12852;SDS011;6495;51.808;7.478;2023-01-25T00:57:14;12.53;;;7.13;;
12852;SDS011;6495;51.808;7.478;2023-01-25T01:00:00;14.17;;;8.23;;
12852;SDS011;6495;51.808;7.478;2023-01-25T01:02:47;17.03;;;8.23;;
12852;SDS011;6495;51.808;7.478;2023-01-25T01:05:34;15.63;;;8.53;;
12852;SDS011;6495;51.808;7.478;2023-01-25T01:08:21;12.83;;;7.33;;
12852;SDS011;6495;51.808;7.478;2023-01-25T01:11:10;14.97;;;8.67;;
12852;SDS011;6495;51.808;7.478;2023-01-25T01:13:58;14.07;;;7.77;;
12852;SDS011;6495;51.808;7.478;2023-01-25T01:16:45;16.57;;;8.60;;
12852;SDS011;6495;51.808;7.478;2023-01-25T01:19:32;18.33;;;9.07;;
12852;SDS011;6495;51.808;7.478;2023-01-25T01:22:19;14.37;;;8.50;;
12852;SDS011;6495;51.808;7.478;2023-01-25T01:25:06;13.57;;;7.17;;
12852;SDS011;6495;51.808;7.478;2023-01-25T01:27:56;16.27;;;8.37;;
12852;SDS011;6495;51.808;7.478;2023-01-25T01:30:42;13.13;;;7.40;;
12852;SDS011;6495;51.808;7.478;2023-01-25T01:33:29;15.60;;;7.97;;
12852;SDS011;6495;51.808;7.478;2023-01-25T01:36:19;14.07;;;7.97;;
12852;SDS011;6495;51.808;7.478;2023-01-25T01:39:07;15.30;;;7.63;;
12852;SDS011;6495;51.808;7.478;2023-01-25T01:41:54;17.07;;;8.03;;
12852;SDS011;6495;51.808;7.478;2023-01-25T01:44:44;12.07;;;7.00;;
12852;SDS011;6495;51.808;7.478;2023-01-25T01:47:34;15.03;;;7.87;;
12852;SDS011;6495;51.808;7.478;2023-01-25T01:50:29;16.43;;;7.90;;
12852;SDS011;6495;51.808;7.478;2023-01-25T01:53:16;13.93;;;6.97;;
12852;SDS011;6495;51.808;7.478;2023-01-25T01:56:05;12.03;;;6.67;;
12852;SDS011;6495;51.808;7.478;2023-01-25T01:58:56;12.17;;;6.83;;
12852;SDS011;6495;51.808;7.478;2023-01-25T02:01:46;14.10;;;8.10;;
12852;SDS011;6495;51.808;7.478;2023-01-25T02:04:32;13.80;;;7.50;;
12852;SDS011;6495;51.808;7.478;2023-01-25T02:07:21;14.73;;;7.43;;
12852;SDS011;6495;51.808;7.478;2023-01-25T02:10:18;10.93;;;6.53;;
12852;SDS011;6495;51.808;7.478;2023-01-25T02:13:07;11.20;;;6.63;;
12852;SDS011;6495;51.808;7.478;2023-01-25T02:15:53;14.23;;;7.10;;
12852;SDS011;6495;51.808;7.478;2023-01-25T02:18:42;14.60;;;7.93;;
12852;SDS011;6495;51.808;7.478;2023-01-25T02:21:30;15.33;;;7.67;;
12852;SDS011;6495;51.808;7.478;2023-01-25T02:24:25;13.80;;;7.57;;
12852;SDS011;6495;51.808;7.478;2023-01-25T02:27:18;12.07;;;7.13;;
12852;SDS011;6495;51.808;7.478;2023-01-25T02:30:06;12.57;;;6.40;;
12852;SDS011;6495;51.808;7.478;2023-01-25T02:32:54;15.77;;;7.77;;
12852;SDS011;6495;51.808;7.478;2023-01-25T02:35:42;13.50;;;6.90;;
12852;SDS011;6495;51.808;7.478;2023-01-25T02:38:32;12.57;;;6.90;;
12852;SDS011;6495;51.808;7.478;2023-01-25T02:41:23;12.40;;;7.20;;
12852;SDS011;6495;51.808;7.478;2023-01-25T02:44:18;14.20;;;6.60;;
12852;SDS011;6495;51.808;7.478;2023-01-25T02:47:09;12.53;;;6.50;;
12852;SDS011;6495;51.808;7.478;2023-01-25T02:49:55;12.43;;;6.67;;
12852;SDS011;6495;51.808;7.478;2023-01-25T02:52:42;13.13;;;6.33;;
12852;SDS011;6495;51.808;7.478;2023-01-25T02:55:28;12.30;;;6.07;;
12852;SDS011;6495;51.808;7.478;2023-01-25T02:58:15;11.67;;;6.47;;
12852;SDS011;6495;51.808;7.478;2023-01-25T03:01:03;10.03;;;6.20;;
12852;SDS011;6495;51.808;7.478;2023-01-25T03:03:50;10.57;;;6.83;;
12852;SDS011;6495;51.808;7.478;2023-01-25T03:06:37;12.20;;;7.07;;
12852;SDS011;6495;51.808;7.478;2023-01-25T03:09:24;10.17;;;6.63;;
12852;SDS011;6495;51.808;7.478;2023-01-25T03:12:11;11.97;;;6.00;;
12852;SDS011;6495;51.808;7.478;2023-01-25T03:14:58;11.23;;;6.63;;
12852;SDS011;6495;51.808;7.478;2023-01-25T03:17:46;12.13;;;6.70;;
12852;SDS011;6495;51.808;7.478;2023-01-25T03:20:32;12.73;;;7.37;;
12852;SDS011;6495;51.808;7.478;2023-01-25T03:23:19;12.97;;;6.40;;
12852;SDS011;6495;51.808;7.478;2023-01-25T03:26:07;14.30;;;7.50;;
12852;SDS011;6495;51.808;7.478;2023-01-25T03:28:56;10.40;;;6.07;;
12852;SDS011;6495;51.808;7.478;2023-01-25T03:31:43;11.03;;;6.07;;
12852;SDS011;6495;51.808;7.478;2023-01-25T03:34:31;12.93;;;6.80;;
12852;SDS011;6495;51.808;7.478;2023-01-25T03:37:18;11.30;;;6.13;;
12852;SDS011;6495;51.808;7.478;2023-01-25T03:40:05;11.83;;;6.77;;
12852;SDS011;6495;51.808;7.478;2023-01-25T03:42:54;10.23;;;6.33;;
12852;SDS011;6495;51.808;7.478;2023-01-25T03:45:40;10.33;;;6.20;;
12852;SDS011;6495;51.808;7.478;2023-01-25T03:48:27;11.60;;;6.30;;
12852;SDS011;6495;51.808;7.478;2023-01-25T03:51:16;12.20;;;5.87;;
12852;SDS011;6495;51.808;7.478;2023-01-25T03:54:03;14.77;;;7.13;;
12852;SDS011;6495;51.808;7.478;2023-01-25T03:56:51;13.23;;;6.40;;
12852;SDS011;6495;51.808;7.478;2023-01-25T03:59:38;15.43;;;7.67;;
12852;SDS011;6495;51.808;7.478;2023-01-25T04:02:25;10.23;;;6.10;;
12852;SDS011;6495;51.808;7.478;2023-01-25T04:05:13;13.33;;;6.30;;
12852;SDS011;6495;51.808;7.478;2023-01-25T04:08:01;13.47;;;6.63;;
12852;SDS011;6495;51.808;7.478;2023-01-25T04:10:50;11.67;;;6.63;;
12852;SDS011;6495;51.808;7.478;2023-01-25T04:13:38;15.40;;;8.30;;
12852;SDS011;6495;51.808;7.478;2023-01-25T04:16:25;18.60;;;8.47;;
12852;SDS011;6495;51.808;7.478;2023-01-25T04:19:14;16.67;;;7.70;;
12852;SDS011;6495;51.808;7.478;2023-01-25T04:22:01;11.83;;;6.67;;
12852;SDS011;6495;51.808;7.478;2023-01-25T04:24:49;11.77;;;7.23;;
12852;SDS011;6495;51.808;7.478;2023-01-25T04:27:36;17.37;;;7.73;;
12852;SDS011;6495;51.808;7.478;2023-01-25T04:30:23;22.30;;;9.20;;
12852;SDS011;6495;51.808;7.478;2023-01-25T04:33:10;12.70;;;6.90;;
12852;SDS011;6495;51.808;7.478;2023-01-25T04:35:57;17.33;;;8.73;;
12852;SDS011;6495;51.808;7.478;2023-01-25T04:38:44;11.47;;;7.30;;
12852;SDS011;6495;51.808;7.478;2023-01-25T04:41:32;14.60;;;7.27;;
12852;SDS011;6495;51.808;7.478;2023-01-25T04:44:19;15.80;;;7.43;;
12852;SDS011;6495;51.808;7.478;2023-01-25T04:47:05;13.73;;;7.53;;
12852;SDS011;6495;51.808;7.478;2023-01-25T04:49:52;13.10;;;7.40;;
12852;SDS011;6495;51.808;7.478;2023-01-25T04:52:39;24.67;;;9.20;;
12852;SDS011;6495;51.808;7.478;2023-01-25T04:55:26;15.87;;;8.70;;
12852;SDS011;6495;51.808;7.478;2023-01-25T04:58:16;19.00;;;8.53;;
12852;SDS011;6495;51.808;7.478;2023-01-25T05:01:03;17.03;;;8.23;;
12852;SDS011;6495;51.808;7.478;2023-01-25T05:03:51;15.97;;;7.40;;
12852;SDS011;6495;51.808;7.478;2023-01-25T05:06:37;15.80;;;8.67;;
12852;SDS011;6495;51.808;7.478;2023-01-25T05:09:24;13.50;;;7.20;;
12852;SDS011;6495;51.808;7.478;2023-01-25T05:12:11;11.73;;;6.53;;
12852;SDS011;6495;51.808;7.478;2023-01-25T05:15:01;14.13;;;7.77;;
12852;SDS011;6495;51.808;7.478;2023-01-25T05:17:48;13.20;;;7.83;;
12852;SDS011;6495;51.808;7.478;2023-01-25T05:20:35;11.40;;;6.30;;
12852;SDS011;6495;51.808;7.478;2023-01-25T05:23:22;12.50;;;7.20;;
12852;SDS011;6495;51.808;7.478;2023-01-25T05:26:12;16.10;;;8.30;;
12852;SDS011;6495;51.808;7.478;2023-01-25T05:29:18;12.43;;;6.40;;
12852;SDS011;6495;51.808;7.478;2023-01-25T05:32:07;15.90;;;7.90;;
12852;SDS011;6495;51.808;7.478;2023-01-25T05:34:57;15.77;;;7.67;;
12852;SDS011;6495;51.808;7.478;2023-01-25T05:37:44;16.13;;;7.90;;
12852;SDS011;6495;51.808;7.478;2023-01-25T05:40:32;16.20;;;7.97;;
12852;SDS011;6495;51.808;7.478;2023-01-25T05:43:19;13.83;;;7.83;;
12852;SDS011;6495;51.808;7.478;2023-01-25T05:46:07;15.70;;;8.20;;
12852;SDS011;6495;51.808;7.478;2023-01-25T05:48:55;14.47;;;7.53;;
12852;SDS011;6495;51.808;7.478;2023-01-25T05:51:42;14.50;;;7.87;;
12852;SDS011;6495;51.808;7.478;2023-01-25T05:54:30;13.80;;;7.43;;
12852;SDS011;6495;51.808;7.478;2023-01-25T05:57:16;10.90;;;6.87;;
12852;SDS011;6495;51.808;7.478;2023-01-25T06:00:04;13.93;;;7.93;;
12852;SDS011;6495;51.808;7.478;2023-01-25T06:02:53;13.47;;;7.87;;
12852;SDS011;6495;51.808;7.478;2023-01-25T06:05:42;18.33;;;8.60;;
12852;SDS011;6495;51.808;7.478;2023-01-25T06:08:30;14.67;;;8.07;;
12852;SDS011;6495;51.808;7.478;2023-01-25T06:11:17;16.77;;;9.17;;
12852;SDS011;6495;51.808;7.478;2023-01-25T06:14:06;14.23;;;7.67;;
12852;SDS011;6495;51.808;7.478;2023-01-25T06:16:53;14.57;;;8.27;;
12852;SDS011;6495;51.808;7.478;2023-01-25T06:19:40;19.97;;;10.30;;
12852;SDS011;6495;51.808;7.478;2023-01-25T06:22:28;16.83;;;8.87;;
12852;SDS011;6495;51.808;7.478;2023-01-25T06:25:14;16.70;;;9.87;;
12852;SDS011;6495;51.808;7.478;2023-01-25T06:28:02;16.83;;;7.83;;
12852;SDS011;6495;51.808;7.478;2023-01-25T06:30:49;15.03;;;7.77;;
12852;SDS011;6495;51.808;7.478;2023-01-25T06:33:35;17.70;;;8.97;;
12852;SDS011;6495;51.808;7.478;2023-01-25T06:36:23;16.33;;;8.77;;
12852;SDS011;6495;51.808;7.478;2023-01-25T06:39:12;16.23;;;7.53;;
12852;SDS011;6495;51.808;7.478;2023-01-25T06:42:00;18.97;;;9.57;;
12852;SDS011;6495;51.808;7.478;2023-01-25T06:44:46;18.30;;;10.03;;
12852;SDS011;6495;51.808;7.478;2023-01-25T06:47:33;23.33;;;10.07;;
12852;SDS011;6495;51.808;7.478;2023-01-25T06:50:20;23.03;;;11.47;;
12852;SDS011;6495;51.808;7.478;2023-01-25T06:53:07;21.30;;;10.37;;
12852;SDS011;6495;51.808;7.478;2023-01-25T06:55:59;19.57;;;10.23;;
12852;SDS011;6495;51.808;7.478;2023-01-25T06:58:47;20.87;;;10.40;;
12852;SDS011;6495;51.808;7.478;2023-01-25T07:01:35;23.67;;;12.10;;
12852;SDS011;6495;51.808;7.478;2023-01-25T07:04:22;21.70;;;11.20;;
12852;SDS011;6495;51.808;7.478;2023-01-25T07:07:08;23.73;;;11.87;;
12852;SDS011;6495;51.808;7.478;2023-01-25T07:09:55;26.93;;;13.07;;
12852;SDS011;6495;51.808;7.478;2023-01-25T07:12:45;24.73;;;12.27;;
12852;SDS011;6495;51.808;7.478;2023-01-25T07:15:32;26.90;;;12.03;;
12852;SDS011;6495;51.808;7.478;2023-01-25T07:18:19;29.47;;;13.73;;
12852;SDS011;6495;51.808;7.478;2023-01-25T07:21:07;32.13;;;13.50;;
12852;SDS011;6495;51.808;7.478;2023-01-25T07:23:58;27.87;;;13.50;;
12852;SDS011;6495;51.808;7.478;2023-01-25T07:26:47;34.00;;;14.13;;
12852;SDS011;6495;51.808;7.478;2023-01-25T07:29:35;31.10;;;15.00;;
12852;SDS011;6495;51.808;7.478;2023-01-25T07:32:21;34.40;;;15.50;;
12852;SDS011;6495;51.808;7.478;2023-01-25T07:35:08;39.47;;;15.00;;
12852;SDS011;6495;51.808;7.478;2023-01-25T07:37:55;35.17;;;14.97;;
12852;SDS011;6495;51.808;7.478;2023-01-25T07:40:42;33.37;;;14.70;;
12852;SDS011;6495;51.808;7.478;2023-01-25T07:43:29;33.97;;;15.70;;
12852;SDS011;6495;51.808;7.478;2023-01-25T07:46:18;31.77;;;14.53;;
12852;SDS011;6495;51.808;7.478;2023-01-25T07:49:05;41.53;;;17.13;;
12852;SDS011;6495;51.808;7.478;2023-01-25T07:51:52;39.90;;;16.50;;
12852;SDS011;6495;51.808;7.478;2023-01-25T07:54:39;33.33;;;14.83;;
12852;SDS011;6495;51.808;7.478;2023-01-25T07:57:25;44.13;;;15.60;;
12852;SDS011;6495;51.808;7.478;2023-01-25T08:00:13;36.57;;;14.83;;
12852;SDS011;6495;51.808;7.478;2023-01-25T08:03:01;32.67;;;14.27;;
12852;SDS011;6495;51.808;7.478;2023-01-25T08:05:48;35.30;;;15.17;;
12852;SDS011;6495;51.808;7.478;2023-01-25T08:08:36;38.20;;;15.53;;
12852;SDS011;6495;51.808;7.478;2023-01-25T08:11:25;32.57;;;15.07;;
12852;SDS011;6495;51.808;7.478;2023-01-25T08:14:14;42.53;;;16.40;;
12852;SDS011;6495;51.808;7.478;2023-01-25T08:17:01;40.33;;;17.00;;
12852;SDS011;6495;51.808;7.478;2023-01-25T08:19:50;39.90;;;14.90;;
12852;SDS011;6495;51.808;7.478;2023-01-25T08:22:37;39.60;;;16.37;;
12852;SDS011;6495;51.808;7.478;2023-01-25T08:25:24;42.80;;;19.47;;
12852;SDS011;6495;51.808;7.478;2023-01-25T08:28:11;37.97;;;16.40;;
12852;SDS011;6495;51.808;7.478;2023-01-25T08:31:03;33.97;;;14.80;;
12852;SDS011;6495;51.808;7.478;2023-01-25T08:33:52;32.77;;;14.17;;
12852;SDS011;6495;51.808;7.478;2023-01-25T08:36:41;35.53;;;15.13;;
12852;SDS011;6495;51.808;7.478;2023-01-25T08:39:27;37.27;;;15.67;;
12852;SDS011;6495;51.808;7.478;2023-01-25T08:42:14;44.40;;;17.30;;
12852;SDS011;6495;51.808;7.478;2023-01-25T08:45:01;36.90;;;18.60;;
12852;SDS011;6495;51.808;7.478;2023-01-25T08:47:49;41.57;;;15.03;;
12852;SDS011;6495;51.808;7.478;2023-01-25T08:50:36;32.03;;;14.03;;
12852;SDS011;6495;51.808;7.478;2023-01-25T08:53:25;34.07;;;14.67;;
12852;SDS011;6495;51.808;7.478;2023-01-25T08:56:13;30.97;;;14.07;;
12852;SDS011;6495;51.808;7.478;2023-01-25T08:59:01;40.37;;;16.03;;
12852;SDS011;6495;51.808;7.478;2023-01-25T09:01:49;43.10;;;17.33;;
12852;SDS011;6495;51.808;7.478;2023-01-25T09:04:36;38.90;;;17.87;;
12852;SDS011;6495;51.808;7.478;2023-01-25T09:07:23;39.33;;;16.23;;
12852;SDS011;6495;51.808;7.478;2023-01-25T09:10:11;37.37;;;17.03;;
12852;SDS011;6495;51.808;7.478;2023-01-25T09:12:58;41.40;;;16.37;;
12852;SDS011;6495;51.808;7.478;2023-01-25T09:15:45;40.63;;;16.93;;
12852;SDS011;6495;51.808;7.478;2023-01-25T09:18:32;41.00;;;16.10;;
12852;SDS011;6495;51.808;7.478;2023-01-25T09:21:22;38.27;;;15.17;;
12852;SDS011;6495;51.808;7.478;2023-01-25T09:24:09;33.70;;;14.50;;
12852;SDS011;6495;51.808;7.478;2023-01-25T09:26:57;34.73;;;15.43;;
12852;SDS011;6495;51.808;7.478;2023-01-25T09:29:44;34.77;;;14.77;;
12852;SDS011;6495;51.808;7.478;2023-01-25T09:32:47;30.57;;;14.43;;
12852;SDS011;6495;51.808;7.478;2023-01-25T09:35:34;39.07;;;15.83;;
12852;SDS011;6495;51.808;7.478;2023-01-25T09:38:21;38.13;;;14.90;;
12852;SDS011;6495;51.808;7.478;2023-01-25T09:41:19;37.67;;;14.60;;
12852;SDS011;6495;51.808;7.478;2023-01-25T09:44:26;31.10;;;13.63;;
12852;SDS011;6495;51.808;7.478;2023-01-25T09:47:32;37.40;;;15.30;;
12852;SDS011;6495;51.808;7.478;2023-01-25T09:50:37;26.23;;;12.90;;
12852;SDS011;6495;51.808;7.478;2023-01-25T09:53:38;32.73;;;15.00;;
12852;SDS011;6495;51.808;7.478;2023-01-25T09:56:28;35.87;;;14.03;;
12852;SDS011;6495;51.808;7.478;2023-01-25T09:59:21;26.63;;;13.13;;
12852;SDS011;6495;51.808;7.478;2023-01-25T10:02:18;22.63;;;11.37;;
12852;SDS011;6495;51.808;7.478;2023-01-25T10:05:20;21.43;;;10.83;;
12852;SDS011;6495;51.808;7.478;2023-01-25T10:08:14;24.97;;;11.80;;
12852;SDS011;6495;51.808;7.478;2023-01-25T10:11:12;22.30;;;10.57;;
12852;SDS011;6495;51.808;7.478;2023-01-25T10:14:09;21.87;;;10.90;;
12852;SDS011;6495;51.808;7.478;2023-01-25T10:17:04;28.53;;;11.97;;
12852;SDS011;6495;51.808;7.478;2023-01-25T10:20:04;24.03;;;11.27;;
12852;SDS011;6495;51.808;7.478;2023-01-25T10:23:14;19.23;;;9.57;;
12852;SDS011;6495;51.808;7.478;2023-01-25T10:26:45;21.83;;;9.83;;
12852;SDS011;6495;51.808;7.478;2023-01-25T10:29:40;19.90;;;10.27;;
12852;SDS011;6495;51.808;7.478;2023-01-25T10:32:29;19.43;;;10.03;;
12852;SDS011;6495;51.808;7.478;2023-01-25T10:35:22;21.90;;;10.07;;
12852;SDS011;6495;51.808;7.478;2023-01-25T10:38:22;17.20;;;9.73;;
12852;SDS011;6495;51.808;7.478;2023-01-25T10:41:16;14.67;;;8.30;;
12852;SDS011;6495;51.808;7.478;2023-01-25T10:44:12;14.83;;;9.00;;
12852;SDS011;6495;51.808;7.478;2023-01-25T10:47:11;20.47;;;10.70;;
12852;SDS011;6495;51.808;7.478;2023-01-25T10:50:09;21.23;;;10.57;;
12852;SDS011;6495;51.808;7.478;2023-01-25T10:53:31;21.07;;;10.30;;
12852;SDS011;6495;51.808;7.478;2023-01-25T10:56:21;18.03;;;8.33;;
12852;SDS011;6495;51.808;7.478;2023-01-25T10:59:15;18.73;;;10.37;;
12852;SDS011;6495;51.808;7.478;2023-01-25T11:05:28;22.37;;;9.43;;
12852;SDS011;6495;51.808;7.478;2023-01-25T11:08:22;19.97;;;9.80;;
12852;SDS011;6495;51.808;7.478;2023-01-25T11:11:14;21.57;;;10.13;;
12852;SDS011;6495;51.808;7.478;2023-01-25T11:14:14;21.47;;;11.13;;
12852;SDS011;6495;51.808;7.478;2023-01-25T11:17:03;18.50;;;10.17;;
12852;SDS011;6495;51.808;7.478;2023-01-25T11:20:14;19.77;;;10.10;;
12852;SDS011;6495;51.808;7.478;2023-01-25T11:23:15;22.90;;;10.47;;
12852;SDS011;6495;51.808;7.478;2023-01-25T11:26:13;18.37;;;10.33;;
12852;SDS011;6495;51.808;7.478;2023-01-25T11:29:06;20.47;;;9.37;;
12852;SDS011;6495;51.808;7.478;2023-01-25T11:31:58;20.03;;;9.87;;
12852;SDS011;6495;51.808;7.478;2023-01-25T11:34:45;22.27;;;10.87;;
12852;SDS011;6495;51.808;7.478;2023-01-25T11:37:36;18.97;;;10.07;;
12852;SDS011;6495;51.808;7.478;2023-01-25T11:40:43;16.90;;;8.53;;
12852;SDS011;6495;51.808;7.478;2023-01-25T11:43:41;21.73;;;9.90;;
12852;SDS011;6495;51.808;7.478;2023-01-25T11:46:50;24.47;;;11.40;;
12852;SDS011;6495;51.808;7.478;2023-01-25T11:49:50;19.10;;;10.23;;
12852;SDS011;6495;51.808;7.478;2023-01-25T11:53:08;22.50;;;11.90;;
12852;SDS011;6495;51.808;7.478;2023-01-25T11:56:40;21.77;;;12.17;;
12852;SDS011;6495;51.808;7.478;2023-01-25T11:59:57;20.63;;;10.40;;
12852;SDS011;6495;51.808;7.478;2023-01-25T12:03:08;21.17;;;10.73;;
12852;SDS011;6495;51.808;7.478;2023-01-25T12:06:47;22.67;;;11.17;;
12852;SDS011;6495;51.808;7.478;2023-01-25T12:10:14;19.43;;;10.60;;
12852;SDS011;6495;51.808;7.478;2023-01-25T12:13:21;20.03;;;10.83;;
12852;SDS011;6495;51.808;7.478;2023-01-25T12:16:40;20.57;;;10.17;;
12852;SDS011;6495;51.808;7.478;2023-01-25T12:23:30;21.77;;;10.67;;
12852;SDS011;6495;51.808;7.478;2023-01-25T12:26:35;21.17;;;10.67;;
12852;SDS011;6495;51.808;7.478;2023-01-25T12:29:41;21.73;;;10.77;;
12852;SDS011;6495;51.808;7.478;2023-01-25T12:32:36;24.93;;;11.13;;
12852;SDS011;6495;51.808;7.478;2023-01-25T12:35:33;23.67;;;12.23;;
12852;SDS011;6495;51.808;7.478;2023-01-25T12:38:26;24.47;;;11.77;;
12852;SDS011;6495;51.808;7.478;2023-01-25T12:41:26;22.37;;;11.13;;
12852;SDS011;6495;51.808;7.478;2023-01-25T12:44:32;20.63;;;10.43;;
12852;SDS011;6495;51.808;7.478;2023-01-25T12:47:32;21.73;;;10.63;;
12852;SDS011;6495;51.808;7.478;2023-01-25T12:50:44;20.73;;;10.43;;
12852;SDS011;6495;51.808;7.478;2023-01-25T12:53:43;22.23;;;11.30;;
12852;SDS011;6495;51.808;7.478;2023-01-25T12:56:37;21.43;;;10.83;;
12852;SDS011;6495;51.808;7.478;2023-01-25T12:59:36;22.97;;;11.27;;
12852;SDS011;6495;51.808;7.478;2023-01-25T13:02:45;25.03;;;13.20;;
12852;SDS011;6495;51.808;7.478;2023-01-25T13:05:50;24.23;;;11.70;;
12852;SDS011;6495;51.808;7.478;2023-01-25T13:08:53;22.93;;;11.87;;
12852;SDS011;6495;51.808;7.478;2023-01-25T13:11:48;23.40;;;12.00;;
12852;SDS011;6495;51.808;7.478;2023-01-25T13:14:36;25.43;;;13.07;;
12852;SDS011;6495;51.808;7.478;2023-01-25T13:17:36;26.60;;;12.87;;
12852;SDS011;6495;51.808;7.478;2023-01-25T13:20:48;29.17;;;14.17;;
12852;SDS011;6495;51.808;7.478;2023-01-25T13:23:44;23.93;;;12.07;;
12852;SDS011;6495;51.808;7.478;2023-01-25T13:26:36;26.23;;;13.93;;
12852;SDS011;6495;51.808;7.478;2023-01-25T13:30:01;21.67;;;11.53;;
12852;SDS011;6495;51.808;7.478;2023-01-25T13:33:15;23.67;;;12.07;;
12852;SDS011;6495;51.808;7.478;2023-01-25T13:36:42;21.77;;;11.77;;
12852;SDS011;6495;51.808;7.478;2023-01-25T13:39:39;22.90;;;12.07;;
12852;SDS011;6495;51.808;7.478;2023-01-25T13:42:30;29.73;;;14.37;;
12852;SDS011;6495;51.808;7.478;2023-01-25T13:48:22;20.87;;;10.90;;
12852;SDS011;6495;51.808;7.478;2023-01-25T13:51:18;24.00;;;12.93;;
12852;SDS011;6495;51.808;7.478;2023-01-25T13:54:21;26.10;;;13.03;;
12852;SDS011;6495;51.808;7.478;2023-01-25T13:57:14;23.33;;;11.53;;
12852;SDS011;6495;51.808;7.478;2023-01-25T14:00:14;21.63;;;12.03;;
12852;SDS011;6495;51.808;7.478;2023-01-25T14:03:10;24.67;;;11.70;;
12852;SDS011;6495;51.808;7.478;2023-01-25T14:06:04;30.83;;;12.70;;
12852;SDS011;6495;51.808;7.478;2023-01-25T14:09:02;25.23;;;13.03;;
12852;SDS011;6495;51.808;7.478;2023-01-25T14:12:10;24.83;;;12.57;;
12852;SDS011;6495;51.808;7.478;2023-01-25T14:15:15;29.40;;;13.93;;
12852;SDS011;6495;51.808;7.478;2023-01-25T14:18:12;26.00;;;12.53;;
12852;SDS011;6495;51.808;7.478;2023-01-25T14:21:08;27.43;;;13.40;;
12852;SDS011;6495;51.808;7.478;2023-01-25T14:24:07;30.03;;;14.53;;
12852;SDS011;6495;51.808;7.478;2023-01-25T14:27:02;26.67;;;14.07;;
12852;SDS011;6495;51.808;7.478;2023-01-25T14:30:02;27.07;;;13.40;;
12852;SDS011;6495;51.808;7.478;2023-01-25T14:33:15;31.00;;;14.83;;
12852;SDS011;6495;51.808;7.478;2023-01-25T14:36:07;31.37;;;13.37;;
12852;SDS011;6495;51.808;7.478;2023-01-25T14:39:22;26.47;;;12.93;;
12852;SDS011;6495;51.808;7.478;2023-01-25T14:42:25;32.20;;;15.00;;
12852;SDS011;6495;51.808;7.478;2023-01-25T14:45:16;28.73;;;13.80;;
12852;SDS011;6495;51.808;7.478;2023-01-25T14:51:38;24.13;;;13.53;;
12852;SDS011;6495;51.808;7.478;2023-01-25T14:54:44;27.73;;;14.40;;
12852;SDS011;6495;51.808;7.478;2023-01-25T14:57:43;24.67;;;13.73;;
12852;SDS011;6495;51.808;7.478;2023-01-25T15:00:36;27.23;;;14.10;;
12852;SDS011;6495;51.808;7.478;2023-01-25T15:03:26;26.13;;;14.27;;
12852;SDS011;6495;51.808;7.478;2023-01-25T15:06:42;27.07;;;14.00;;
12852;SDS011;6495;51.808;7.478;2023-01-25T15:09:38;32.73;;;14.17;;
12852;SDS011;6495;51.808;7.478;2023-01-25T15:12:28;30.90;;;13.97;;
12852;SDS011;6495;51.808;7.478;2023-01-25T15:15:25;32.43;;;15.03;;
12852;SDS011;6495;51.808;7.478;2023-01-25T15:24:45;27.57;;;13.77;;
12852;SDS011;6495;51.808;7.478;2023-01-25T15:27:42;37.87;;;15.13;;
12852;SDS011;6495;51.808;7.478;2023-01-25T15:30:36;29.40;;;15.43;;
12852;SDS011;6495;51.808;7.478;2023-01-25T15:33:40;32.20;;;15.30;;
12852;SDS011;6495;51.808;7.478;2023-01-25T15:36:32;29.80;;;15.27;;
12852;SDS011;6495;51.808;7.478;2023-01-25T15:39:25;37.07;;;15.87;;
12852;SDS011;6495;51.808;7.478;2023-01-25T15:42:27;27.90;;;14.40;;
12852;SDS011;6495;51.808;7.478;2023-01-25T15:45:24;36.07;;;16.13;;
12852;SDS011;6495;51.808;7.478;2023-01-25T15:48:26;26.93;;;13.50;;
12852;SDS011;6495;51.808;7.478;2023-01-25T15:51:27;31.20;;;14.67;;
12852;SDS011;6495;51.808;7.478;2023-01-25T15:54:32;35.80;;;16.53;;
12852;SDS011;6495;51.808;7.478;2023-01-25T15:57:26;34.60;;;16.57;;
12852;SDS011;6495;51.808;7.478;2023-01-25T16:00:26;36.17;;;16.47;;
12852;SDS011;6495;51.808;7.478;2023-01-25T16:03:21;35.40;;;15.30;;
12852;SDS011;6495;51.808;7.478;2023-01-25T16:06:20;36.03;;;16.30;;
12852;SDS011;6495;51.808;7.478;2023-01-25T16:09:28;33.73;;;14.83;;
12852;SDS011;6495;51.808;7.478;2023-01-25T16:12:46;40.93;;;16.67;;
12852;SDS011;6495;51.808;7.478;2023-01-25T16:15:45;36.97;;;16.83;;
12852;SDS011;6495;51.808;7.478;2023-01-25T16:18:57;37.20;;;15.40;;
12852;SDS011;6495;51.808;7.478;2023-01-25T16:22:23;33.03;;;15.87;;
12852;SDS011;6495;51.808;7.478;2023-01-25T16:25:25;38.57;;;17.30;;
12852;SDS011;6495;51.808;7.478;2023-01-25T16:28:24;42.67;;;18.00;;
12852;SDS011;6495;51.808;7.478;2023-01-25T16:31:18;37.30;;;19.00;;
12852;SDS011;6495;51.808;7.478;2023-01-25T16:34:19;37.80;;;14.90;;
12852;SDS011;6495;51.808;7.478;2023-01-25T16:41:33;34.53;;;14.53;;
12852;SDS011;6495;51.808;7.478;2023-01-25T16:44:20;36.13;;;16.63;;
12852;SDS011;6495;51.808;7.478;2023-01-25T16:47:08;36.03;;;16.93;;
12852;SDS011;6495;51.808;7.478;2023-01-25T16:50:00;34.40;;;17.07;;
12852;SDS011;6495;51.808;7.478;2023-01-25T16:52:47;36.03;;;16.13;;
12852;SDS011;6495;51.808;7.478;2023-01-25T16:55:35;32.73;;;15.30;;
12852;SDS011;6495;51.808;7.478;2023-01-25T16:58:22;32.57;;;15.37;;
12852;SDS011;6495;51.808;7.478;2023-01-25T17:01:09;44.57;;;18.03;;
12852;SDS011;6495;51.808;7.478;2023-01-25T17:03:57;37.13;;;16.97;;
12852;SDS011;6495;51.808;7.478;2023-01-25T17:06:46;39.47;;;18.27;;
12852;SDS011;6495;51.808;7.478;2023-01-25T17:09:36;39.07;;;16.80;;
12852;SDS011;6495;51.808;7.478;2023-01-25T17:12:23;43.10;;;17.10;;
12852;SDS011;6495;51.808;7.478;2023-01-25T17:15:10;40.03;;;16.17;;
12852;SDS011;6495;51.808;7.478;2023-01-25T17:17:57;41.50;;;18.17;;
12852;SDS011;6495;51.808;7.478;2023-01-25T17:20:43;48.90;;;18.67;;
12852;SDS011;6495;51.808;7.478;2023-01-25T17:23:33;38.80;;;16.60;;
12852;SDS011;6495;51.808;7.478;2023-01-25T17:26:22;38.50;;;16.10;;
12852;SDS011;6495;51.808;7.478;2023-01-25T17:29:10;33.00;;;14.83;;
12852;SDS011;6495;51.808;7.478;2023-01-25T17:31:57;33.33;;;14.50;;
12852;SDS011;6495;51.808;7.478;2023-01-25T17:34:44;37.53;;;16.10;;
12852;SDS011;6495;51.808;7.478;2023-01-25T17:37:31;40.50;;;15.23;;
12852;SDS011;6495;51.808;7.478;2023-01-25T17:40:20;25.83;;;12.23;;